G. O. Sars — LMEL — position and weather

sailwx.info

Track history (hours):
 
Tides and Currents Weather Stations Pressure Air Temp Water Temp Dewpoint Dewpoint Depression Visibility Wind Speed Wind Dir Waves Ship Positions

Oceanographic research ship G. O. Sars (Norway)

Detailed information on ship capabilities available from University of Delaware's Ocean Information Center and ARCUS's ALIAS (Arctic Logistics Information and Support) project.

Last reported at 2018-Dec-09 19:59 UTC. Time now 2018-Dec-09 20:14 UTC.
Position N 60°24' E 005°19'.

Type: Other ship. MMSI: 257105000.

Date/timePositionNaut miles runAvg speedWind from/ knotsBaromVisibWave heightAir tempDewpointWater temp
2018-Dec-09 19:59N 60°24' E 005°19'0 0.0
2018-Dec-09 19:29N 60°24' E 005°19'0 0.0
2018-Dec-09 18:59N 60°24' E 005°19'0 0.0
2018-Dec-09 18:29N 60°24' E 005°19'0 0.0
2018-Dec-09 17:59N 60°24' E 005°19'0 0.0
2018-Dec-09 17:29N 60°24' E 005°19'0 0.0
2018-Dec-09 16:59N 60°24' E 005°19'0 0.0
2018-Dec-09 16:29N 60°24' E 005°19'0 0.0
2018-Dec-09 15:56N 60°24' E 005°19'0 0.0
2018-Dec-09 15:29N 60°24' E 005°19'0 0.0
2018-Dec-09 14:58N 60°24' E 005°19'0 0.0
2018-Dec-09 14:29N 60°24' E 005°19'0 0.0
2018-Dec-09 13:59N 60°24' E 005°19'0 0.0
2018-Dec-09 13:28N 60°24' E 005°19'0 0.0
2018-Dec-09 12:58N 60°24' E 005°19'0 0.0
2018-Dec-09 12:28N 60°24' E 005°19'0 0.0
2018-Dec-09 11:58N 60°24' E 005°19'0 0.0
2018-Dec-09 11:28N 60°24' E 005°19'0 0.0
2018-Dec-09 10:58N 60°24' E 005°19'0 0.0
2018-Dec-09 10:28N 60°24' E 005°19'0 0.0
2018-Dec-09 09:58N 60°24' E 005°19'0 0.4
2018-Dec-09 09:30N 60°24' E 005°19'4 7.5
2018-Dec-09 09:00N 60°23' E 005°11'4 9.1
2018-Dec-09 08:30N 60°25' E 005°03'5 9.7
2018-Dec-09 08:00N 60°30' E 004°59'510.4
2018-Dec-09 07:30N 60°34' E 004°55'510.5
2018-Dec-09 07:00N 60°39' E 004°51'510.4
2018-Dec-09 06:30N 60°44' E 004°47'510.7
2018-Dec-09 06:00N 60°49' E 004°43'5 9.7
2018-Dec-09 05:30N 60°54' E 004°46'611.3
2018-Dec-09 05:00N 60°60' E 004°45'510.2
2018-Dec-09 04:30N 61°05' E 004°43'510.7
2018-Dec-09 04:00N 61°10' E 004°44'510.2
2018-Dec-09 03:30N 61°15' E 004°44'611.0
2018-Dec-09 03:00N 61°20' E 004°48'611.4
2018-Dec-09 02:29N 61°26' E 004°52'611.5
2018-Dec-09 02:00N 61°30' E 004°59'510.6
2018-Dec-09 01:30N 61°35' E 004°57'611.5
2018-Dec-09 01:00N 61°41' E 004°58'510.2
2018-Dec-09 00:30N 61°46' E 005°00'612.1
2018-Dec-09 00:00N 61°49' E 005°11'3 6.7
2018-Dec-08 23:30N 61°53' E 005°12'4 8.8
2018-Dec-08 23:00N 61°56' E 005°08'510.4
2018-Dec-08 22:30N 62°02' E 005°09'611.1
2018-Dec-08 22:00N 62°07' E 005°05'5 9.8
2018-Dec-08 21:30N 62°12' E 005°03'510.7
2018-Dec-08 21:00N 62°16' E 005°11'510.9
2018-Dec-08 20:30N 62°20' E 005°19'510.8
2018-Dec-08 20:00N 62°24' E 005°26'510.6
2018-Dec-08 19:29N 62°27' E 005°36'510.9
2018-Dec-08 19:00N 62°27' E 005°47'611.8
2018-Dec-08 18:30N 62°27' E 005°60'510.4
2018-Dec-08 18:00N 62°31' E 006°09'611.1
2018-Dec-08 17:30N 62°35' E 006°15'611.2
2018-Dec-08 17:00N 62°39' E 006°24'611.3
2018-Dec-08 16:29N 62°44' E 006°31'611.7
2018-Dec-08 16:00N 62°49' E 006°38'611.1
2018-Dec-08 15:30N 62°54' E 006°45'510.8
2018-Dec-08 15:00N 62°58' E 006°52'611.0
2018-Dec-08 14:30N 63°00' E 007°03'611.4
2018-Dec-08 14:00N 63°02' E 007°14'611.4
2018-Dec-08 13:30N 63°05' E 007°26'611.3
2018-Dec-08 13:00N 63°08' E 007°36'2 5.2
2018-Dec-08 12:38N 63°08' E 007°40'0 1.2
2018-Dec-08 12:30N 63°08' E 007°40'21297.4
2018-Dec-08 12:30N 63°07' E 007°44'2 4.1
2018-Dec-08 12:00N 63°08' E 007°41'510.9
2018-Dec-08 11:30N 63°12' E 007°49'611.5
2018-Dec-08 11:00N 63°14' E 008°01'611.5
2018-Dec-08 10:30N 63°17' E 008°12'611.0
2018-Dec-08 10:00N 63°21' E 008°21'511.3
2018-Dec-08 09:30N 63°24' E 008°32'611.8
2018-Dec-08 08:59N 63°26' E 008°44'611.7
2018-Dec-08 08:29N 63°28' E 008°56'511.1
2018-Dec-08 08:00N 63°31' E 009°08'510.1
2018-Dec-08 07:30N 63°34' E 009°16'611.4
2018-Dec-08 07:00N 63°40' E 009°15'611.2
2018-Dec-08 06:30N 63°45' E 009°17'510.8
2018-Dec-08 06:00N 63°51' E 009°19'611.2
2018-Dec-08 05:30N 63°56' E 009°25'611.4
2018-Dec-08 05:00N 64°01' E 009°31'611.3
2018-Dec-08 04:30N 64°06' E 009°37'611.9
2018-Dec-08 04:00N 64°11' E 009°43'611.3
2018-Dec-08 03:30N 64°16' E 009°50'611.2
2018-Dec-08 03:00N 64°20' E 009°59'611.0
2018-Dec-08 02:30N 64°24' E 010°08'611.6
2018-Dec-08 02:00N 64°28' E 010°18'611.8
2018-Dec-08 01:30N 64°32' E 010°28'611.4
2018-Dec-08 01:00N 64°36' E 010°37'611.2
2018-Dec-08 00:30N 64°40' E 010°46'611.7
2018-Dec-08 00:00N 64°44' E 010°56'611.7
2018-Dec-07 23:30N 64°48' E 011°06'510.9
2018-Dec-07 23:00N 64°52' E 011°15'510.5
2018-Dec-07 22:30N 64°55' E 011°24'611.5
2018-Dec-07 22:00N 64°59' E 011°35'510.9
2018-Dec-07 21:30N 65°03' E 011°43'611.6
2018-Dec-07 21:00N 65°08' E 011°49'611.4
2018-Dec-07 20:30N 65°13' E 011°54'611.3
2018-Dec-07 20:00N 65°19' E 011°60'4 8.0
2018-Dec-07 19:30N 65°23' E 011°59'510.2
2018-Dec-07 19:00N 65°28' E 011°57'611.5
2018-Dec-07 18:30N 65°33' E 012°03'611.2
2018-Dec-07 17:59N 65°37' E 012°13'611.4
2018-Dec-07 17:29N 65°43' E 012°16'611.6
2018-Dec-07 16:59N 65°48' E 012°21'611.5
2018-Dec-07 16:29N 65°54' E 012°22'611.3
2018-Dec-07 16:00N 65°59' E 012°28'611.4
2018-Dec-07 15:30N 66°03' E 012°37'611.4
2018-Dec-07 15:00N 66°07' E 012°46'611.1
2018-Dec-07 14:30N 66°12' E 012°52'611.2
2018-Dec-07 14:00N 66°18' E 012°56'611.0
2018-Dec-07 13:30N 66°23' E 012°58'611.0
2018-Dec-07 13:00N 66°29' E 012°59'5 9.1
2018-Dec-07 12:30N 66°33' E 013°02'510.4
2018-Dec-07 12:00N 66°38' E 013°05'611.2
2018-Dec-07 11:30N 66°43' E 013°11'611.1
2018-Dec-07 11:00N 66°49' E 013°15'510.2
2018-Dec-07 10:30N 66°53' E 013°22'5 9.6
2018-Dec-07 10:00N 66°57' E 013°29'5 9.9
2018-Dec-07 09:30N 66°60' E 013°39'611.3
2018-Dec-07 09:00N 67°03' E 013°51'511.0
2018-Dec-07 08:30N 67°07' E 014°00'611.0
2018-Dec-07 08:00N 67°12' E 014°06'611.4
2018-Dec-07 07:30N 67°17' E 014°14'611.3
2018-Dec-07 07:00N 67°21' E 014°23'510.6
2018-Dec-07 06:30N 67°26' E 014°26'611.1
2018-Dec-07 06:00N 67°32' E 014°21'611.4
2018-Dec-07 05:30N 67°37' E 014°17'510.8
2018-Dec-07 05:00N 67°43' E 014°16'611.0
2018-Dec-07 04:30N 67°48' E 014°22'611.4
2018-Dec-07 04:00N 67°52' E 014°32'611.4
2018-Dec-07 03:30N 67°56' E 014°42'1111.2
2018-Dec-07 02:30N 68°04' E 015°04'611.6
2018-Dec-07 02:00N 68°07' E 015°17'611.5
2018-Dec-07 01:30N 68°11' E 015°28'511.0
2018-Dec-07 01:00N 68°14' E 015°40'611.3
2018-Dec-07 00:30N 68°19' E 015°50'611.4
2018-Dec-07 00:00N 68°23' E 016°00'611.5
2018-Dec-06 23:30N 68°28' E 016°06'510.9
2018-Dec-06 23:00N 68°33' E 016°14'5 9.7
2018-Dec-06 22:30N 68°33' E 016°27'4 8.0
2018-Dec-06 22:00N 68°37' E 016°33'510.4
2018-Dec-06 21:30N 68°41' E 016°40'611.0
2018-Dec-06 21:00N 68°46' E 016°47'611.1
2018-Dec-06 20:30N 68°51' E 016°55'611.4
2018-Dec-06 20:00N 68°56' E 017°03'610.9
2018-Dec-06 19:29N 68°59' E 017°14'611.3
2018-Dec-06 19:00N 69°04' E 017°22'510.7
2018-Dec-06 18:30N 69°07' E 017°35'611.1
2018-Dec-06 18:00N 69°09' E 017°50'510.3
2018-Dec-06 17:30N 69°12' E 018°01'510.0
2018-Dec-06 16:59N 69°17' E 017°58'510.2
2018-Dec-06 16:29N 69°21' E 018°06'510.4
2018-Dec-06 16:00N 69°26' E 018°07'5 9.9
2018-Dec-06 15:30N 69°30' E 018°17'611.2
2018-Dec-06 14:59N 69°32' E 018°32'611.9
2018-Dec-06 14:30N 69°34' E 018°48'510.7
2018-Dec-06 14:00N 69°38' E 018°57'1 2.3
2018-Dec-06 13:30N 69°39' E 018°58'0 0.0
2018-Dec-06 13:00N 69°39' E 018°58'0 0.0
2018-Dec-06 12:30N 69°39' E 018°58'0 0.0
2018-Dec-06 12:00N 69°39' E 018°58'0 0.0
2018-Dec-06 11:29N 69°39' E 018°58'0 0.0
2018-Dec-06 11:00N 69°39' E 018°58'0 0.0
2018-Dec-06 10:29N 69°39' E 018°58'0 0.0
2018-Dec-06 10:00N 69°39' E 018°58'0 0.0
2018-Dec-06 09:29N 69°39' E 018°58'0 0.0
2018-Dec-06 08:59N 69°39' E 018°58'0 0.0
2018-Dec-06 08:29N 69°39' E 018°58'0 0.0
2018-Dec-06 07:59N 69°39' E 018°58'0 0.0
2018-Dec-06 07:29N 69°39' E 018°58'0 0.0
2018-Dec-06 06:59N 69°39' E 018°58'0 0.0
2018-Dec-06 06:29N 69°39' E 018°58'0 0.0
2018-Dec-06 05:59N 69°39' E 018°58'0 0.0
2018-Dec-06 05:29N 69°39' E 018°58'0 0.0
2018-Dec-06 04:59N 69°39' E 018°58'0 0.0
2018-Dec-06 04:29N 69°39' E 018°58'0 0.0
2018-Dec-06 03:59N 69°39' E 018°58'0 0.0
2018-Dec-06 03:29N 69°39' E 018°58'4 3.9
2018-Dec-06 02:30N 69°43' E 019°03'2 3.0
2018-Dec-06 02:00N 69°44' E 019°03'0 0.7
2018-Dec-06 01:30N 69°44' E 019°02'0 0.7
2018-Dec-06 01:00N 69°44' E 019°03'0 0.4
2018-Dec-06 00:30N 69°44' E 019°03'0 0.5
2018-Dec-06 00:00N 69°44' E 019°03'0 0.9
2018-Dec-05 23:30N 69°45' E 019°03'0 0.6
2018-Dec-05 23:00N 69°45' E 019°02'0 0.2
2018-Dec-05 22:30N 69°44' E 019°02'0 0.8
2018-Dec-05 22:00N 69°44' E 019°03'0 0.4
2018-Dec-05 21:30N 69°44' E 019°02'0 0.2
2018-Dec-05 21:00N 69°44' E 019°02'1 1.3
2018-Dec-05 20:30N 69°45' E 019°03'0 0.3
2018-Dec-05 20:00N 69°45' E 019°03'4 7.5
2018-Dec-05 19:29N 69°49' E 019°01'510.0
2018-Dec-05 19:00N 69°52' E 018°51'5 9.5
2018-Dec-05 18:30N 69°55' E 018°40'4 9.0
2018-Dec-05 18:00N 69°56' E 018°27'4 9.0
2018-Dec-05 17:30N 69°57' E 018°15'4 8.5
2018-Dec-05 17:01N 69°59' E 018°05'4 8.1
2018-Dec-05 16:29N 70°03' E 017°58'4 7.7
2018-Dec-05 16:00N 70°06' E 017°53'3 5.2
2018-Dec-05 15:30N 70°09' E 017°49'2 3.9
2018-Dec-05 15:00N 70°10' E 017°47'1 2.5
2018-Dec-05 14:30N 70°12' E 017°46'2 3.5
2018-Dec-05 14:00N 70°13' E 017°48'1 1.3
2018-Dec-05 13:29N 70°13' E 017°48'2 3.6
2018-Dec-05 13:00N 70°11' E 017°46'2 3.3
2018-Dec-05 12:30N 70°13' E 017°48'2 3.3
2018-Dec-05 12:00N 70°14' E 017°50'4 7.1
2018-Dec-05 11:30N 70°17' E 017°54'3 5.5
2018-Dec-05 11:00N 70°20' E 017°55'2 3.0
2018-Dec-05 10:30N 70°19' E 017°51'2 3.5
2018-Dec-05 10:00N 70°18' E 017°47'2 3.5
2018-Dec-05 09:30N 70°17' E 017°44'2 3.3
2018-Dec-05 09:00N 70°16' E 017°40'2 3.8
2018-Dec-05 08:30N 70°14' E 017°37'1 1.8
2018-Dec-05 08:00N 70°14' E 017°35'1 2.9
2018-Dec-05 07:30N 70°15' E 017°36'2 3.1
2018-Dec-05 06:59N 70°16' E 017°34'4 7.9
2018-Dec-05 06:30N 70°16' E 017°22'4 8.4
2018-Dec-05 06:00N 70°13' E 017°31'3 6.7
2018-Dec-05 05:30N 70°12' E 017°40'3 5.8
2018-Dec-05 05:00N 70°13' E 017°48'5 9.4
2018-Dec-05 04:30N 70°13' E 017°34'3 6.4
2018-Dec-05 04:00N 70°16' E 017°31'4 7.2
2018-Dec-05 03:30N 70°20' E 017°29'4 8.7
2018-Dec-05 03:00N 70°20' E 017°17'4 7.1
2018-Dec-05 02:30N 70°23' E 017°24'4 8.4
2018-Dec-05 02:00N 70°24' E 017°36'5 9.1
2018-Dec-05 01:30N 70°26' E 017°49'5 9.5
2018-Dec-05 01:00N 70°28' E 018°01'3 5.7
2018-Dec-05 00:30N 70°29' E 018°09'5 9.8
2018-Dec-05 00:00N 70°31' E 018°23'510.0
2018-Dec-04 23:29N 70°33' E 018°37'4 9.3
2018-Dec-04 23:01N 70°34' E 018°49'5 9.2
2018-Dec-04 22:30N 70°34' E 019°03'5 9.2
2018-Dec-04 22:00N 70°34' E 019°17'4 8.9
2018-Dec-04 21:30N 70°36' E 019°29'5 9.3
2018-Dec-04 21:00N 70°38' E 019°42'5 9.9
2018-Dec-04 20:30N 70°39' E 019°57'5 9.4
2018-Dec-04 20:00N 70°42' E 020°09'4 8.4
2018-Dec-04 19:30N 70°44' E 020°19'4 8.6
2018-Dec-04 19:00N 70°47' E 020°29'4 7.7
2018-Dec-04 18:30N 70°50' E 020°37'1 2.5
2018-Dec-04 18:00N 70°49' E 020°40'2 3.7
2018-Dec-04 17:30N 70°48' E 020°45'0 0.7
2018-Dec-04 17:00N 70°48' E 020°46'4 7.9
2018-Dec-04 16:30N 70°50' E 020°35'1 2.7
2018-Dec-04 16:00N 70°49' E 020°38'2 3.6
2018-Dec-04 15:29N 70°48' E 020°43'2 4.5
2018-Dec-04 15:00N 70°46' E 020°47'5 9.5
2018-Dec-04 14:30N 70°42' E 020°46'5 9.7
2018-Dec-04 14:00N 70°37' E 020°45'5 9.6
2018-Dec-04 13:30N 70°32' E 020°43'5 9.8
2018-Dec-04 13:00N 70°27' E 020°41'510.1
2018-Dec-04 12:30N 70°22' E 020°40'510.4
2018-Dec-04 12:00N 70°17' E 020°38'3 5.4
2018-Dec-04 11:31N 70°14' E 020°37'0 0.0
2018-Dec-04 11:00N 70°14' E 020°37'2 4.3
2018-Dec-04 10:30N 70°15' E 020°31'3 5.8
2018-Dec-04 10:00N 70°16' E 020°23'2 3.2
2018-Dec-04 09:30N 70°15' E 020°22'2 4.5
2018-Dec-04 09:00N 70°12' E 020°21'1 3.0
2018-Dec-04 08:30N 70°14' E 020°22'0 0.6
2018-Dec-04 08:00N 70°14' E 020°22'2 3.9
2018-Dec-04 07:30N 70°12' E 020°21'2 4.2
2018-Dec-04 07:00N 70°10' E 020°18'2 3.7
2018-Dec-04 06:30N 70°11' E 020°14'2 3.1
2018-Dec-04 06:00N 70°10' E 020°18'2 3.9
2018-Dec-04 05:30N 70°12' E 020°22'3 5.1
2018-Dec-04 05:00N 70°14' E 020°26'2 3.7
2018-Dec-04 04:30N 70°13' E 020°20'2 4.9
2018-Dec-04 04:00N 70°11' E 020°19'3 5.1
2018-Dec-04 03:30N 70°08' E 020°17'3 5.4
2018-Dec-04 03:00N 70°06' E 020°16'2 4.0
2018-Dec-04 02:30N 70°08' E 020°19'3 5.9
2018-Dec-04 02:00N 70°11' E 020°21'3 6.2
2018-Dec-04 01:29N 70°13' E 020°27'2 4.1
2018-Dec-04 01:00N 70°15' E 020°28'3 4.9
2018-Dec-04 00:30N 70°15' E 020°20'3 6.0
2018-Dec-04 00:00N 70°12' E 020°17'3 6.6
2018-Dec-03 23:30N 70°09' E 020°15'3 6.2
2018-Dec-03 23:00N 70°06' E 020°13'1 2.7
2018-Dec-03 22:30N 70°07' E 020°16'3 6.5
2018-Dec-03 22:00N 70°10' E 020°17'4 8.0
2018-Dec-03 21:30N 70°13' E 020°09'510.2
2018-Dec-03 21:00N 70°18' E 020°05'510.1
2018-Dec-03 20:30N 70°23' E 020°04'510.0
2018-Dec-03 19:59N 70°28' E 020°03'5 9.9
2018-Dec-03 19:30N 70°33' E 020°02'5 9.2
2018-Dec-03 19:00N 70°38' E 020°03'4 8.9
2018-Dec-03 18:30N 70°42' E 020°02'5 9.4
2018-Dec-03 18:00N 70°47' E 020°01'5 9.6
2018-Dec-03 17:30N 70°51' E 020°01'5 9.8
2018-Dec-03 17:00N 70°56' E 020°02'5 9.4
2018-Dec-03 16:30N 71°01' E 020°03'5 9.3
2018-Dec-03 16:00N 71°06' E 020°04'5 9.2
2018-Dec-03 15:30N 71°10' E 020°06'5 9.4
2018-Dec-03 15:00N 71°15' E 020°07'5 9.3
2018-Dec-03 14:30N 71°20' E 020°06'5 9.4
2018-Dec-03 14:00N 71°24' E 020°06'5 9.8
2018-Dec-03 13:30N 71°29' E 020°06'510.0
2018-Dec-03 12:59N 71°34' E 020°06'  
2018-Dec-01 02:48N 72°06' E 021°58'1410.2
2018-Dec-01 01:23N 71°53' E 022°19'410.0
2018-Dec-01 01:00N 71°50' E 022°24'510.1
2018-Dec-01 00:30N 71°45' E 022°32'5 9.9
2018-Dec-01 00:00N 71°41' E 022°39'5 9.8
2018-Nov-30 23:31N 71°37' E 022°46'5 9.8
2018-Nov-30 23:00N 71°32' E 022°53'5 9.8
2018-Nov-30 22:30N 71°28' E 022°60'510.0
2018-Nov-30 22:00N 71°24' E 023°07'510.0
2018-Nov-30 21:30N 71°19' E 023°13'510.0
2018-Nov-30 21:00N 71°14' E 023°20'510.4
2018-Nov-30 20:30N 71°10' E 023°26'510.2
2018-Nov-30 20:00N 71°05' E 023°34'510.7
2018-Nov-30 19:30N 71°00' E 023°41'511.0
2018-Nov-30 19:00N 70°56' E 023°49'4 7.5
2018-Nov-30 18:31N 70°52' E 023°52'2 3.1
2018-Nov-30 18:00N 70°51' E 023°50'2 3.6
2018-Nov-30 17:30N 70°49' E 023°46'2 3.8
2018-Nov-30 17:00N 70°48' E 023°43'2 3.3
2018-Nov-30 16:30N 70°46' E 023°40'2 4.1
2018-Nov-30 15:59N 70°45' E 023°36'5 9.2
2018-Nov-30 15:30N 70°40' E 023°34'2 4.1
2018-Nov-30 15:00N 70°40' E 023°40'0 0.0
2018-Nov-30 14:30N 70°40' E 023°40'0 0.0
2018-Nov-30 14:00N 70°40' E 023°40'0 0.0
2018-Nov-30 13:30N 70°40' E 023°40'0 0.0
2018-Nov-30 13:00N 70°40' E 023°40'0 0.0
2018-Nov-30 12:30N 70°40' E 023°40'0 0.0
2018-Nov-30 12:00N 70°40' E 023°40'0 0.0
2018-Nov-30 11:30N 70°40' E 023°40'0 0.0
2018-Nov-30 11:00N 70°40' E 023°40'0 0.0
2018-Nov-30 10:30N 70°40' E 023°40'0 0.0
2018-Nov-30 10:00N 70°40' E 023°40'0 0.0
2018-Nov-30 09:30N 70°40' E 023°40'0 0.0
2018-Nov-30 09:00N 70°40' E 023°40'0 0.0
2018-Nov-30 08:30N 70°40' E 023°40'0 0.0
2018-Nov-30 08:00N 70°40' E 023°40'0 0.0
2018-Nov-30 07:30N 70°40' E 023°40'0 0.0
2018-Nov-30 07:00N 70°40' E 023°40'0 0.0
2018-Nov-30 06:30N 70°40' E 023°40'0 0.0
2018-Nov-30 06:00N 70°40' E 023°40'0 0.0
2018-Nov-30 05:30N 70°40' E 023°40'0 0.0
2018-Nov-30 05:00N 70°40' E 023°40'0 0.0
2018-Nov-30 04:30N 70°40' E 023°40'0 0.0
2018-Nov-30 04:00N 70°40' E 023°40'0 0.0
2018-Nov-30 03:30N 70°40' E 023°40'0 0.0
2018-Nov-30 03:00N 70°40' E 023°40'0 0.0
2018-Nov-30 02:30N 70°40' E 023°40'0 0.0
2018-Nov-30 02:00N 70°40' E 023°40'0 0.0
2018-Nov-30 01:30N 70°40' E 023°40'0 0.0
2018-Nov-30 01:00N 70°40' E 023°40'0 0.0
2018-Nov-30 00:30N 70°40' E 023°40'0 0.0
2018-Nov-30 00:00N 70°40' E 023°40'0 0.0
2018-Nov-29 23:30N 70°40' E 023°40'0 0.0
2018-Nov-29 23:00N 70°40' E 023°40'0 0.4
2018-Nov-29 22:30N 70°40' E 023°40'611.3
2018-Nov-29 21:59N 70°38' E 023°23'611.6
2018-Nov-29 21:30N 70°35' E 023°10'612.1
2018-Nov-29 21:00N 70°31' E 022°56'611.6
2018-Nov-29 20:30N 70°29' E 022°40'4 8.1
2018-Nov-29 20:00N 70°28' E 022°28'  
Track history (hours):
 
Tides and Currents Weather Stations Pressure Air Temp Water Temp Dewpoint Dewpoint Depression Visibility Wind Speed Wind Dir Waves Ship Positions

Oceanographic research ship G. O. Sars (Norway)

Detailed information on ship capabilities available from University of Delaware's Ocean Information Center and ARCUS's ALIAS (Arctic Logistics Information and Support) project.

Last reported at 2018-Dec-09 19:59 UTC. Time now 2018-Dec-09 20:14 UTC.
Position N 60°24' E 005°19'.

Type: Other ship. MMSI: 257105000.

Date/timePositionNaut miles runAvg speedWind from/ knotsBaromVisibWave heightAir tempDewpointWater temp
2018-Dec-09 19:59N 60°24' E 005°19'0 0.0
2018-Dec-09 19:29N 60°24' E 005°19'0 0.0
2018-Dec-09 18:59N 60°24' E 005°19'0 0.0
2018-Dec-09 18:29N 60°24' E 005°19'0 0.0
2018-Dec-09 17:59N 60°24' E 005°19'0 0.0
2018-Dec-09 17:29N 60°24' E 005°19'0 0.0
2018-Dec-09 16:59N 60°24' E 005°19'0 0.0
2018-Dec-09 16:29N 60°24' E 005°19'0 0.0
2018-Dec-09 15:56N 60°24' E 005°19'0 0.0
2018-Dec-09 15:29N 60°24' E 005°19'0 0.0
2018-Dec-09 14:58N 60°24' E 005°19'0 0.0
2018-Dec-09 14:29N 60°24' E 005°19'0 0.0
2018-Dec-09 13:59N 60°24' E 005°19'0 0.0
2018-Dec-09 13:28N 60°24' E 005°19'0 0.0
2018-Dec-09 12:58N 60°24' E 005°19'0 0.0
2018-Dec-09 12:28N 60°24' E 005°19'0 0.0
2018-Dec-09 11:58N 60°24' E 005°19'0 0.0
2018-Dec-09 11:28N 60°24' E 005°19'0 0.0
2018-Dec-09 10:58N 60°24' E 005°19'0 0.0
2018-Dec-09 10:28N 60°24' E 005°19'0 0.0
2018-Dec-09 09:58N 60°24' E 005°19'0 0.4
2018-Dec-09 09:30N 60°24' E 005°19'4 7.5
2018-Dec-09 09:00N 60°23' E 005°11'4 9.1
2018-Dec-09 08:30N 60°25' E 005°03'5 9.7
2018-Dec-09 08:00N 60°30' E 004°59'510.4
2018-Dec-09 07:30N 60°34' E 004°55'510.5
2018-Dec-09 07:00N 60°39' E 004°51'510.4
2018-Dec-09 06:30N 60°44' E 004°47'510.7
2018-Dec-09 06:00N 60°49' E 004°43'5 9.7
2018-Dec-09 05:30N 60°54' E 004°46'611.3
2018-Dec-09 05:00N 60°60' E 004°45'510.2
2018-Dec-09 04:30N 61°05' E 004°43'510.7
2018-Dec-09 04:00N 61°10' E 004°44'510.2
2018-Dec-09 03:30N 61°15' E 004°44'611.0
2018-Dec-09 03:00N 61°20' E 004°48'611.4
2018-Dec-09 02:29N 61°26' E 004°52'611.5
2018-Dec-09 02:00N 61°30' E 004°59'510.6
2018-Dec-09 01:30N 61°35' E 004°57'611.5
2018-Dec-09 01:00N 61°41' E 004°58'510.2
2018-Dec-09 00:30N 61°46' E 005°00'612.1
2018-Dec-09 00:00N 61°49' E 005°11'3 6.7
2018-Dec-08 23:30N 61°53' E 005°12'4 8.8
2018-Dec-08 23:00N 61°56' E 005°08'510.4
2018-Dec-08 22:30N 62°02' E 005°09'611.1
2018-Dec-08 22:00N 62°07' E 005°05'5 9.8
2018-Dec-08 21:30N 62°12' E 005°03'510.7
2018-Dec-08 21:00N 62°16' E 005°11'510.9
2018-Dec-08 20:30N 62°20' E 005°19'510.8
2018-Dec-08 20:00N 62°24' E 005°26'510.6
2018-Dec-08 19:29N 62°27' E 005°36'510.9
2018-Dec-08 19:00N 62°27' E 005°47'611.8
2018-Dec-08 18:30N 62°27' E 005°60'510.4
2018-Dec-08 18:00N 62°31' E 006°09'611.1
2018-Dec-08 17:30N 62°35' E 006°15'611.2
2018-Dec-08 17:00N 62°39' E 006°24'611.3
2018-Dec-08 16:29N 62°44' E 006°31'611.7
2018-Dec-08 16:00N 62°49' E 006°38'611.1
2018-Dec-08 15:30N 62°54' E 006°45'510.8
2018-Dec-08 15:00N 62°58' E 006°52'611.0
2018-Dec-08 14:30N 63°00' E 007°03'611.4
2018-Dec-08 14:00N 63°02' E 007°14'611.4
2018-Dec-08 13:30N 63°05' E 007°26'611.3
2018-Dec-08 13:00N 63°08' E 007°36'2 5.2
2018-Dec-08 12:38N 63°08' E 007°40'0 1.2
2018-Dec-08 12:30N 63°08' E 007°40'21297.4
2018-Dec-08 12:30N 63°07' E 007°44'2 4.1
2018-Dec-08 12:00N 63°08' E 007°41'510.9
2018-Dec-08 11:30N 63°12' E 007°49'611.5
2018-Dec-08 11:00N 63°14' E 008°01'611.5
2018-Dec-08 10:30N 63°17' E 008°12'611.0
2018-Dec-08 10:00N 63°21' E 008°21'511.3
2018-Dec-08 09:30N 63°24' E 008°32'611.8
2018-Dec-08 08:59N 63°26' E 008°44'611.7
2018-Dec-08 08:29N 63°28' E 008°56'511.1
2018-Dec-08 08:00N 63°31' E 009°08'510.1
2018-Dec-08 07:30N 63°34' E 009°16'611.4
2018-Dec-08 07:00N 63°40' E 009°15'611.2
2018-Dec-08 06:30N 63°45' E 009°17'510.8
2018-Dec-08 06:00N 63°51' E 009°19'611.2
2018-Dec-08 05:30N 63°56' E 009°25'611.4
2018-Dec-08 05:00N 64°01' E 009°31'611.3
2018-Dec-08 04:30N 64°06' E 009°37'611.9
2018-Dec-08 04:00N 64°11' E 009°43'611.3
2018-Dec-08 03:30N 64°16' E 009°50'611.2
2018-Dec-08 03:00N 64°20' E 009°59'611.0
2018-Dec-08 02:30N 64°24' E 010°08'611.6
2018-Dec-08 02:00N 64°28' E 010°18'611.8
2018-Dec-08 01:30N 64°32' E 010°28'611.4
2018-Dec-08 01:00N 64°36' E 010°37'611.2
2018-Dec-08 00:30N 64°40' E 010°46'611.7
2018-Dec-08 00:00N 64°44' E 010°56'611.7
2018-Dec-07 23:30N 64°48' E 011°06'510.9
2018-Dec-07 23:00N 64°52' E 011°15'510.5
2018-Dec-07 22:30N 64°55' E 011°24'611.5
2018-Dec-07 22:00N 64°59' E 011°35'510.9
2018-Dec-07 21:30N 65°03' E 011°43'611.6
2018-Dec-07 21:00N 65°08' E 011°49'611.4
2018-Dec-07 20:30N 65°13' E 011°54'611.3
2018-Dec-07 20:00N 65°19' E 011°60'4 8.0
2018-Dec-07 19:30N 65°23' E 011°59'510.2
2018-Dec-07 19:00N 65°28' E 011°57'611.5
2018-Dec-07 18:30N 65°33' E 012°03'611.2
2018-Dec-07 17:59N 65°37' E 012°13'611.4
2018-Dec-07 17:29N 65°43' E 012°16'611.6
2018-Dec-07 16:59N 65°48' E 012°21'611.5
2018-Dec-07 16:29N 65°54' E 012°22'611.3
2018-Dec-07 16:00N 65°59' E 012°28'611.4
2018-Dec-07 15:30N 66°03' E 012°37'611.4
2018-Dec-07 15:00N 66°07' E 012°46'611.1
2018-Dec-07 14:30N 66°12' E 012°52'611.2
2018-Dec-07 14:00N 66°18' E 012°56'611.0
2018-Dec-07 13:30N 66°23' E 012°58'611.0
2018-Dec-07 13:00N 66°29' E 012°59'5 9.1
2018-Dec-07 12:30N 66°33' E 013°02'510.4
2018-Dec-07 12:00N 66°38' E 013°05'611.2
2018-Dec-07 11:30N 66°43' E 013°11'611.1
2018-Dec-07 11:00N 66°49' E 013°15'510.2
2018-Dec-07 10:30N 66°53' E 013°22'5 9.6
2018-Dec-07 10:00N 66°57' E 013°29'5 9.9
2018-Dec-07 09:30N 66°60' E 013°39'611.3
2018-Dec-07 09:00N 67°03' E 013°51'511.0
2018-Dec-07 08:30N 67°07' E 014°00'611.0
2018-Dec-07 08:00N 67°12' E 014°06'611.4
2018-Dec-07 07:30N 67°17' E 014°14'611.3
2018-Dec-07 07:00N 67°21' E 014°23'510.6
2018-Dec-07 06:30N 67°26' E 014°26'611.1
2018-Dec-07 06:00N 67°32' E 014°21'611.4
2018-Dec-07 05:30N 67°37' E 014°17'510.8
2018-Dec-07 05:00N 67°43' E 014°16'611.0
2018-Dec-07 04:30N 67°48' E 014°22'611.4
2018-Dec-07 04:00N 67°52' E 014°32'611.4
2018-Dec-07 03:30N 67°56' E 014°42'1111.2
2018-Dec-07 02:30N 68°04' E 015°04'611.6
2018-Dec-07 02:00N 68°07' E 015°17'611.5
2018-Dec-07 01:30N 68°11' E 015°28'511.0
2018-Dec-07 01:00N 68°14' E 015°40'611.3
2018-Dec-07 00:30N 68°19' E 015°50'611.4
2018-Dec-07 00:00N 68°23' E 016°00'611.5
2018-Dec-06 23:30N 68°28' E 016°06'510.9
2018-Dec-06 23:00N 68°33' E 016°14'5 9.7
2018-Dec-06 22:30N 68°33' E 016°27'4 8.0
2018-Dec-06 22:00N 68°37' E 016°33'510.4
2018-Dec-06 21:30N 68°41' E 016°40'611.0
2018-Dec-06 21:00N 68°46' E 016°47'611.1
2018-Dec-06 20:30N 68°51' E 016°55'611.4
2018-Dec-06 20:00N 68°56' E 017°03'610.9
2018-Dec-06 19:29N 68°59' E 017°14'611.3
2018-Dec-06 19:00N 69°04' E 017°22'510.7
2018-Dec-06 18:30N 69°07' E 017°35'611.1
2018-Dec-06 18:00N 69°09' E 017°50'510.3
2018-Dec-06 17:30N 69°12' E 018°01'510.0
2018-Dec-06 16:59N 69°17' E 017°58'510.2
2018-Dec-06 16:29N 69°21' E 018°06'510.4
2018-Dec-06 16:00N 69°26' E 018°07'5 9.9
2018-Dec-06 15:30N 69°30' E 018°17'611.2
2018-Dec-06 14:59N 69°32' E 018°32'611.9
2018-Dec-06 14:30N 69°34' E 018°48'510.7
2018-Dec-06 14:00N 69°38' E 018°57'1 2.3
2018-Dec-06 13:30N 69°39' E 018°58'0 0.0
2018-Dec-06 13:00N 69°39' E 018°58'0 0.0
2018-Dec-06 12:30N 69°39' E 018°58'0 0.0
2018-Dec-06 12:00N 69°39' E 018°58'0 0.0
2018-Dec-06 11:29N 69°39' E 018°58'0 0.0
2018-Dec-06 11:00N 69°39' E 018°58'0 0.0
2018-Dec-06 10:29N 69°39' E 018°58'0 0.0
2018-Dec-06 10:00N 69°39' E 018°58'0 0.0
2018-Dec-06 09:29N 69°39' E 018°58'0 0.0
2018-Dec-06 08:59N 69°39' E 018°58'0 0.0
2018-Dec-06 08:29N 69°39' E 018°58'0 0.0
2018-Dec-06 07:59N 69°39' E 018°58'0 0.0
2018-Dec-06 07:29N 69°39' E 018°58'0 0.0
2018-Dec-06 06:59N 69°39' E 018°58'0 0.0
2018-Dec-06 06:29N 69°39' E 018°58'0 0.0
2018-Dec-06 05:59N 69°39' E 018°58'0 0.0
2018-Dec-06 05:29N 69°39' E 018°58'0 0.0
2018-Dec-06 04:59N 69°39' E 018°58'0 0.0
2018-Dec-06 04:29N 69°39' E 018°58'0 0.0
2018-Dec-06 03:59N 69°39' E 018°58'0 0.0
2018-Dec-06 03:29N 69°39' E 018°58'4 3.9
2018-Dec-06 02:30N 69°43' E 019°03'2 3.0
2018-Dec-06 02:00N 69°44' E 019°03'0 0.7
2018-Dec-06 01:30N 69°44' E 019°02'0 0.7
2018-Dec-06 01:00N 69°44' E 019°03'0 0.4
2018-Dec-06 00:30N 69°44' E 019°03'0 0.5
2018-Dec-06 00:00N 69°44' E 019°03'0 0.9
2018-Dec-05 23:30N 69°45' E 019°03'0 0.6
2018-Dec-05 23:00N 69°45' E 019°02'0 0.2
2018-Dec-05 22:30N 69°44' E 019°02'0 0.8
2018-Dec-05 22:00N 69°44' E 019°03'0 0.4
2018-Dec-05 21:30N 69°44' E 019°02'0 0.2
2018-Dec-05 21:00N 69°44' E 019°02'1 1.3
2018-Dec-05 20:30N 69°45' E 019°03'0 0.3
2018-Dec-05 20:00N 69°45' E 019°03'4 7.5
2018-Dec-05 19:29N 69°49' E 019°01'510.0
2018-Dec-05 19:00N 69°52' E 018°51'5 9.5
2018-Dec-05 18:30N 69°55' E 018°40'4 9.0
2018-Dec-05 18:00N 69°56' E 018°27'4 9.0
2018-Dec-05 17:30N 69°57' E 018°15'4 8.5
2018-Dec-05 17:01N 69°59' E 018°05'4 8.1
2018-Dec-05 16:29N 70°03' E 017°58'4 7.7
2018-Dec-05 16:00N 70°06' E 017°53'3 5.2
2018-Dec-05 15:30N 70°09' E 017°49'2 3.9
2018-Dec-05 15:00N 70°10' E 017°47'1 2.5
2018-Dec-05 14:30N 70°12' E 017°46'2 3.5
2018-Dec-05 14:00N 70°13' E 017°48'1 1.3
2018-Dec-05 13:29N 70°13' E 017°48'2 3.6
2018-Dec-05 13:00N 70°11' E 017°46'2 3.3
2018-Dec-05 12:30N 70°13' E 017°48'2 3.3
2018-Dec-05 12:00N 70°14' E 017°50'4 7.1
2018-Dec-05 11:30N 70°17' E 017°54'3 5.5
2018-Dec-05 11:00N 70°20' E 017°55'2 3.0
2018-Dec-05 10:30N 70°19' E 017°51'2 3.5
2018-Dec-05 10:00N 70°18' E 017°47'2 3.5
2018-Dec-05 09:30N 70°17' E 017°44'2 3.3
2018-Dec-05 09:00N 70°16' E 017°40'2 3.8
2018-Dec-05 08:30N 70°14' E 017°37'1 1.8
2018-Dec-05 08:00N 70°14' E 017°35'1 2.9
2018-Dec-05 07:30N 70°15' E 017°36'2 3.1
2018-Dec-05 06:59N 70°16' E 017°34'4 7.9
2018-Dec-05 06:30N 70°16' E 017°22'4 8.4
2018-Dec-05 06:00N 70°13' E 017°31'3 6.7
2018-Dec-05 05:30N 70°12' E 017°40'3 5.8
2018-Dec-05 05:00N 70°13' E 017°48'5 9.4
2018-Dec-05 04:30N 70°13' E 017°34'3 6.4
2018-Dec-05 04:00N 70°16' E 017°31'4 7.2
2018-Dec-05 03:30N 70°20' E 017°29'4 8.7
2018-Dec-05 03:00N 70°20' E 017°17'4 7.1
2018-Dec-05 02:30N 70°23' E 017°24'4 8.4
2018-Dec-05 02:00N 70°24' E 017°36'5 9.1
2018-Dec-05 01:30N 70°26' E 017°49'5 9.5
2018-Dec-05 01:00N 70°28' E 018°01'3 5.7
2018-Dec-05 00:30N 70°29' E 018°09'5 9.8
2018-Dec-05 00:00N 70°31' E 018°23'510.0
2018-Dec-04 23:29N 70°33' E 018°37'4 9.3
2018-Dec-04 23:01N 70°34' E 018°49'5 9.2
2018-Dec-04 22:30N 70°34' E 019°03'5 9.2
2018-Dec-04 22:00N 70°34' E 019°17'4 8.9
2018-Dec-04 21:30N 70°36' E 019°29'5 9.3
2018-Dec-04 21:00N 70°38' E 019°42'5 9.9
2018-Dec-04 20:30N 70°39' E 019°57'5 9.4
2018-Dec-04 20:00N 70°42' E 020°09'4 8.4
2018-Dec-04 19:30N 70°44' E 020°19'4 8.6
2018-Dec-04 19:00N 70°47' E 020°29'4 7.7
2018-Dec-04 18:30N 70°50' E 020°37'1 2.5
2018-Dec-04 18:00N 70°49' E 020°40'2 3.7
2018-Dec-04 17:30N 70°48' E 020°45'0 0.7
2018-Dec-04 17:00N 70°48' E 020°46'4 7.9
2018-Dec-04 16:30N 70°50' E 020°35'1 2.7
2018-Dec-04 16:00N 70°49' E 020°38'2 3.6
2018-Dec-04 15:29N 70°48' E 020°43'2 4.5
2018-Dec-04 15:00N 70°46' E 020°47'5 9.5
2018-Dec-04 14:30N 70°42' E 020°46'5 9.7
2018-Dec-04 14:00N 70°37' E 020°45'5 9.6
2018-Dec-04 13:30N 70°32' E 020°43'5 9.8
2018-Dec-04 13:00N 70°27' E 020°41'510.1
2018-Dec-04 12:30N 70°22' E 020°40'510.4
2018-Dec-04 12:00N 70°17' E 020°38'3 5.4
2018-Dec-04 11:31N 70°14' E 020°37'0 0.0
2018-Dec-04 11:00N 70°14' E 020°37'2 4.3
2018-Dec-04 10:30N 70°15' E 020°31'3 5.8
2018-Dec-04 10:00N 70°16' E 020°23'2 3.2
2018-Dec-04 09:30N 70°15' E 020°22'2 4.5
2018-Dec-04 09:00N 70°12' E 020°21'1 3.0
2018-Dec-04 08:30N 70°14' E 020°22'0 0.6
2018-Dec-04 08:00N 70°14' E 020°22'2 3.9
2018-Dec-04 07:30N 70°12' E 020°21'2 4.2
2018-Dec-04 07:00N 70°10' E 020°18'2 3.7
2018-Dec-04 06:30N 70°11' E 020°14'2 3.1
2018-Dec-04 06:00N 70°10' E 020°18'2 3.9
2018-Dec-04 05:30N 70°12' E 020°22'3 5.1
2018-Dec-04 05:00N 70°14' E 020°26'2 3.7
2018-Dec-04 04:30N 70°13' E 020°20'2 4.9
2018-Dec-04 04:00N 70°11' E 020°19'3 5.1
2018-Dec-04 03:30N 70°08' E 020°17'3 5.4
2018-Dec-04 03:00N 70°06' E 020°16'2 4.0
2018-Dec-04 02:30N 70°08' E 020°19'3 5.9
2018-Dec-04 02:00N 70°11' E 020°21'3 6.2
2018-Dec-04 01:29N 70°13' E 020°27'2 4.1
2018-Dec-04 01:00N 70°15' E 020°28'3 4.9
2018-Dec-04 00:30N 70°15' E 020°20'3 6.0
2018-Dec-04 00:00N 70°12' E 020°17'3 6.6
2018-Dec-03 23:30N 70°09' E 020°15'3 6.2
2018-Dec-03 23:00N 70°06' E 020°13'1 2.7
2018-Dec-03 22:30N 70°07' E 020°16'3 6.5
2018-Dec-03 22:00N 70°10' E 020°17'4 8.0
2018-Dec-03 21:30N 70°13' E 020°09'510.2
2018-Dec-03 21:00N 70°18' E 020°05'510.1
2018-Dec-03 20:30N 70°23' E 020°04'510.0
2018-Dec-03 19:59N 70°28' E 020°03'5 9.9
2018-Dec-03 19:30N 70°33' E 020°02'5 9.2
2018-Dec-03 19:00N 70°38' E 020°03'4 8.9
2018-Dec-03 18:30N 70°42' E 020°02'5 9.4
2018-Dec-03 18:00N 70°47' E 020°01'5 9.6
2018-Dec-03 17:30N 70°51' E 020°01'5 9.8
2018-Dec-03 17:00N 70°56' E 020°02'5 9.4
2018-Dec-03 16:30N 71°01' E 020°03'5 9.3
2018-Dec-03 16:00N 71°06' E 020°04'5 9.2
2018-Dec-03 15:30N 71°10' E 020°06'5 9.4
2018-Dec-03 15:00N 71°15' E 020°07'5 9.3
2018-Dec-03 14:30N 71°20' E 020°06'5 9.4
2018-Dec-03 14:00N 71°24' E 020°06'5 9.8
2018-Dec-03 13:30N 71°29' E 020°06'510.0
2018-Dec-03 12:59N 71°34' E 020°06'  
2018-Dec-01 02:48N 72°06' E 021°58'1410.2
2018-Dec-01 01:23N 71°53' E 022°19'410.0
2018-Dec-01 01:00N 71°50' E 022°24'510.1
2018-Dec-01 00:30N 71°45' E 022°32'5 9.9
2018-Dec-01 00:00N 71°41' E 022°39'5 9.8
2018-Nov-30 23:31N 71°37' E 022°46'5 9.8
2018-Nov-30 23:00N 71°32' E 022°53'5 9.8
2018-Nov-30 22:30N 71°28' E 022°60'510.0
2018-Nov-30 22:00N 71°24' E 023°07'510.0
2018-Nov-30 21:30N 71°19' E 023°13'510.0
2018-Nov-30 21:00N 71°14' E 023°20'510.4
2018-Nov-30 20:30N 71°10' E 023°26'510.2
2018-Nov-30 20:00N 71°05' E 023°34'510.7
2018-Nov-30 19:30N 71°00' E 023°41'511.0
2018-Nov-30 19:00N 70°56' E 023°49'4 7.5
2018-Nov-30 18:31N 70°52' E 023°52'2 3.1
2018-Nov-30 18:00N 70°51' E 023°50'2 3.6
2018-Nov-30 17:30N 70°49' E 023°46'2 3.8
2018-Nov-30 17:00N 70°48' E 023°43'2 3.3
2018-Nov-30 16:30N 70°46' E 023°40'2 4.1
2018-Nov-30 15:59N 70°45' E 023°36'5 9.2
2018-Nov-30 15:30N 70°40' E 023°34'2 4.1
2018-Nov-30 15:00N 70°40' E 023°40'0 0.0
2018-Nov-30 14:30N 70°40' E 023°40'0 0.0
2018-Nov-30 14:00N 70°40' E 023°40'0 0.0
2018-Nov-30 13:30N 70°40' E 023°40'0 0.0
2018-Nov-30 13:00N 70°40' E 023°40'0 0.0
2018-Nov-30 12:30N 70°40' E 023°40'0 0.0
2018-Nov-30 12:00N 70°40' E 023°40'0 0.0
2018-Nov-30 11:30N 70°40' E 023°40'0 0.0
2018-Nov-30 11:00N 70°40' E 023°40'0 0.0
2018-Nov-30 10:30N 70°40' E 023°40'0 0.0
2018-Nov-30 10:00N 70°40' E 023°40'0 0.0
2018-Nov-30 09:30N 70°40' E 023°40'0 0.0
2018-Nov-30 09:00N 70°40' E 023°40'0 0.0
2018-Nov-30 08:30N 70°40' E 023°40'0 0.0
2018-Nov-30 08:00N 70°40' E 023°40'0 0.0
2018-Nov-30 07:30N 70°40' E 023°40'0 0.0
2018-Nov-30 07:00N 70°40' E 023°40'0 0.0
2018-Nov-30 06:30N 70°40' E 023°40'0 0.0
2018-Nov-30 06:00N 70°40' E 023°40'0 0.0
2018-Nov-30 05:30N 70°40' E 023°40'0 0.0
2018-Nov-30 05:00N 70°40' E 023°40'0 0.0
2018-Nov-30 04:30N 70°40' E 023°40'0 0.0
2018-Nov-30 04:00N 70°40' E 023°40'0 0.0
2018-Nov-30 03:30N 70°40' E 023°40'0 0.0
2018-Nov-30 03:00N 70°40' E 023°40'0 0.0
2018-Nov-30 02:30N 70°40' E 023°40'0 0.0
2018-Nov-30 02:00N 70°40' E 023°40'0 0.0
2018-Nov-30 01:30N 70°40' E 023°40'0 0.0
2018-Nov-30 01:00N 70°40' E 023°40'0 0.0
2018-Nov-30 00:30N 70°40' E 023°40'0 0.0
2018-Nov-30 00:00N 70°40' E 023°40'0 0.0
2018-Nov-29 23:30N 70°40' E 023°40'0 0.0
2018-Nov-29 23:00N 70°40' E 023°40'0 0.4
2018-Nov-29 22:30N 70°40' E 023°40'611.3
2018-Nov-29 21:59N 70°38' E 023°23'611.6
2018-Nov-29 21:30N 70°35' E 023°10'612.1
2018-Nov-29 21:00N 70°31' E 022°56'611.6
2018-Nov-29 20:30N 70°29' E 022°40'4 8.1
2018-Nov-29 20:00N 70°28' E 022°28'  

Dump ship's entire track history